createdAt,value
2019-02-22T15:33:45.194Z,46.30
2019-02-22T15:34:48.879Z,46.70
2019-02-22T15:35:52.519Z,46.70
2019-02-22T15:36:56.179Z,46.90
2019-02-22T15:42:34.827Z,47.00
2019-02-22T15:47:38.483Z,46.90
2019-02-22T15:52:42.170Z,46.10
2019-02-22T15:57:45.847Z,46.70
2019-02-22T16:02:49.500Z,47.70
2019-02-22T16:07:53.211Z,47.30
2019-02-22T16:12:56.902Z,47.60
2019-02-22T16:18:00.591Z,48.80
2019-02-22T16:23:04.295Z,47.80
2019-02-22T16:28:08.014Z,47.80
2019-02-22T16:33:11.890Z,48.10
2019-02-22T16:38:16.207Z,48.50
2019-02-22T16:43:19.872Z,49.40
2019-02-22T16:48:23.569Z,49.90
2019-02-22T16:53:27.297Z,50.30
2019-02-22T16:58:31.019Z,50.30
2019-02-22T17:03:34.772Z,50.20
2019-02-22T17:08:38.610Z,50.00
2019-02-22T17:13:42.326Z,49.90
2019-02-22T17:18:46.027Z,50.20
2019-02-22T17:23:49.714Z,50.40
2019-02-22T17:28:53.417Z,51.20
2019-02-22T17:33:57.090Z,50.80
2019-02-22T17:39:00.755Z,51.50
2019-02-22T17:44:04.425Z,51.70
2019-02-22T17:49:08.087Z,52.20
2019-02-22T17:54:12.193Z,52.90
2019-02-22T17:59:15.845Z,53.50
2019-02-22T18:04:19.642Z,54.50
2019-02-22T18:09:23.419Z,54.80
2019-02-22T18:14:27.114Z,55.40
2019-02-22T18:19:31.958Z,55.60
2019-02-22T18:24:35.819Z,56.10
2019-02-22T18:29:39.519Z,56.40
2019-02-22T18:34:43.293Z,56.10
2019-02-22T18:39:46.998Z,56.30
2019-02-22T18:44:50.696Z,57.70
2019-02-22T18:49:54.511Z,58.40
2019-02-22T18:54:58.236Z,57.80
2019-02-22T19:00:01.968Z,57.10
2019-02-22T19:05:07.380Z,57.10
2019-02-22T19:10:13.560Z,57.30
2019-02-22T19:15:17.230Z,57.20
2019-02-22T19:20:21.450Z,56.00
2019-02-22T19:25:25.190Z,56.30
2019-02-22T19:30:28.922Z,56.50
2019-02-22T19:35:32.676Z,56.30
2019-02-22T19:40:36.468Z,55.60
2019-02-22T19:45:40.193Z,55.40
2019-02-22T19:50:43.934Z,99.90
2019-02-22T19:55:47.651Z,57.10
2019-02-22T20:00:51.377Z,47.50
2019-02-22T20:05:55.107Z,44.80
2019-02-22T20:10:58.942Z,51.10
2019-02-22T20:16:02.772Z,44.70
2019-02-22T20:21:06.588Z,45.70
2019-02-22T20:26:10.515Z,44.60
2019-02-22T20:31:20.182Z,41.20
2019-02-22T20:36:28.114Z,40.30
2019-02-22T20:41:25.011Z,39.20
2019-02-22T20:46:28.721Z,38.90
2019-02-22T20:51:32.709Z,38.30
2019-02-22T20:56:36.380Z,37.80
2019-02-22T21:01:40.157Z,37.50
2019-02-22T21:06:44.091Z,37.10
2019-02-22T21:11:48.110Z,37.10
2019-02-22T21:16:51.827Z,37.20
2019-02-22T21:21:55.534Z,37.50
2019-02-22T21:26:59.253Z,37.90
2019-02-22T21:32:03.250Z,38.00
2019-02-22T21:37:07.004Z,38.30
2019-02-22T21:42:19.864Z,38.40
2019-02-22T21:47:16.081Z,38.70
2019-02-22T21:52:19.817Z,38.40
2019-02-22T21:57:23.524Z,38.50
2019-02-22T22:02:27.255Z,38.30
2019-02-22T22:07:30.977Z,39.40
2019-02-22T22:12:34.650Z,39.30
2019-02-22T22:17:38.429Z,39.40
2019-02-22T22:22:42.159Z,39.50
2019-02-22T22:27:45.859Z,39.20
2019-02-22T22:32:52.277Z,39.00
2019-02-22T22:37:55.063Z,38.60
2019-02-22T22:42:58.770Z,37.90
2019-02-22T22:48:02.422Z,37.40
2019-02-22T22:53:06.080Z,36.60
2019-02-22T22:58:09.737Z,36.10
2019-02-22T23:03:13.465Z,35.80
2019-02-22T23:08:17.169Z,35.60
2019-02-22T23:13:20.866Z,35.90
2019-02-22T23:18:24.537Z,36.10
2019-02-22T23:23:28.355Z,36.20
2019-02-22T23:28:32.055Z,36.30
2019-02-22T23:33:35.709Z,36.60
2019-02-22T23:38:39.606Z,36.80
2019-02-22T23:43:43.722Z,36.90
2019-02-22T23:48:48.048Z,37.10
2019-02-22T23:53:51.779Z,37.70
2019-02-22T23:58:55.441Z,37.20
